This is the latest recevied weather packets stored in our database for station/object KD0MAC. If no packets are shown the sender has not sent any weather packets the latest 10 day(s).
| Time | Temp. | Humidity | Pressure | Rain* | Wind** | Luminosity | Snow |
|---|---|---|---|---|---|---|---|
| 1777833995 | 31.11° C | 18% | 1010.8 hPa | 0 mm | - | 632 W/m² | - |
| 1777833693 | 31.11° C | 17% | 1010.8 hPa | 0 mm | - | 417 W/m² | - |
| 1777833394 | 31.67° C | 17% | 1011.2 hPa | 0 mm | - | 522 W/m² | - |
| 1777833094 | 31.67° C | 17% | 1011.2 hPa | 0 mm | - | 515 W/m² | - |
| 1777832793 | 31.11° C | 18% | 1011.2 hPa | 0 mm | - | 527 W/m² | - |
| 1777832493 | 31.11° C | 20% | 1011.5 hPa | 0 mm | - | 567 W/m² | - |
| 1777832193 | 31.11° C | 19% | 1011.5 hPa | 0 mm | - | 518 W/m² | - |
| 1777831894 | 31.11° C | 20% | 1011.5 hPa | 0 mm | - | 589 W/m² | - |
| 1777831593 | 31.11° C | 18% | 1011.5 hPa | 0 mm | - | 590 W/m² | - |
| 1777831294 | 31.67° C | 18% | 1011.9 hPa | 0 mm | - | 482 W/m² | - |
| 1777830994 | 32.22° C | 18% | 1011.9 hPa | 0 mm | - | 621 W/m² | - |
| 1777830694 | 31.67° C | 18% | 1011.9 hPa | 0 mm | - | 514 W/m² | - |
| 1777830394 | 30.56° C | 18% | 1011.9 hPa | 0 mm | - | 606 W/m² | - |
| 1777830094 | 30° C | 18% | 1012.2 hPa | 0 mm | - | 545 W/m² | - |
| 1777829794 | 28.89° C | 22% | 1012.2 hPa | 0 mm | - | 577 W/m² | - |
| 1777829494 | 28.89° C | 20% | 1012.2 hPa | 0 mm | - | 573 W/m² | - |
| 1777829194 | 27.78° C | 21% | 1012.5 hPa | 0 mm | - | 526 W/m² | - |
| 1777828893 | 27.78° C | 22% | 1012.5 hPa | 0 mm | - | 493 W/m² | - |
| 1777828598 | 27.22° C | 22% | 1012.5 hPa | 0 mm | - | 441 W/m² | - |
| 1777828293 | 28.33° C | 19% | 1012.5 hPa | 0 mm | - | 436 W/m² | - |
| 1777827994 | 27.78° C | 22% | 1012.5 hPa | 0 mm | - | 505 W/m² | - |
| 1777827693 | 27.78° C | 20% | 1012.9 hPa | 0 mm | - | 512 W/m² | - |
| 1777827393 | 27.78° C | 21% | 1012.9 hPa | 0 mm | - | 478 W/m² | - |
| 1777827093 | 27.22° C | 20% | 1012.9 hPa | 0 mm | - | 465 W/m² | - |
| 1777826794 | 26.67° C | 21% | 1012.9 hPa | 0 mm | - | 534 W/m² | - |
* Rain latest hour (hover to see other rain measurements)
** Current wind speed in m/s (hover to see current wind gust speed)